sensor_id;sensor_type;location;lat;lon;timestamp;P1;durP1;ratioP1;P2;durP2;ratioP2
45694;SDS011;31408;45.468;9.124;2023-02-02T00:02:00;13.00;;;5.03;;
45694;SDS011;31408;45.468;9.124;2023-02-02T00:04:33;18.70;;;6.60;;
45694;SDS011;31408;45.468;9.124;2023-02-02T00:06:59;16.77;;;4.70;;
45694;SDS011;31408;45.468;9.124;2023-02-02T00:09:27;6.65;;;3.83;;
45694;SDS011;31408;45.468;9.124;2023-02-02T00:11:53;10.82;;;4.70;;
45694;SDS011;31408;45.468;9.124;2023-02-02T00:14:19;10.02;;;4.60;;
45694;SDS011;31408;45.468;9.124;2023-02-02T00:19:19;16.30;;;4.45;;
45694;SDS011;31408;45.468;9.124;2023-02-02T00:21:50;12.38;;;4.25;;
45694;SDS011;31408;45.468;9.124;2023-02-02T00:24:16;11.43;;;4.30;;
45694;SDS011;31408;45.468;9.124;2023-02-02T00:26:43;10.75;;;4.40;;
45694;SDS011;31408;45.468;9.124;2023-02-02T00:29:13;13.32;;;5.03;;
45694;SDS011;31408;45.468;9.124;2023-02-02T00:31:41;13.90;;;4.85;;
45694;SDS011;31408;45.468;9.124;2023-02-02T00:34:08;7.97;;;4.75;;
45694;SDS011;31408;45.468;9.124;2023-02-02T00:36:35;8.98;;;4.53;;
45694;SDS011;31408;45.468;9.124;2023-02-02T00:39:00;10.23;;;4.85;;
45694;SDS011;31408;45.468;9.124;2023-02-02T00:41:26;14.32;;;4.78;;
45694;SDS011;31408;45.468;9.124;2023-02-02T00:43:52;11.50;;;4.88;;
45694;SDS011;31408;45.468;9.124;2023-02-02T00:46:39;15.00;;;5.07;;
45694;SDS011;31408;45.468;9.124;2023-02-02T00:49:05;14.13;;;5.10;;
45694;SDS011;31408;45.468;9.124;2023-02-02T00:51:31;9.55;;;4.40;;
45694;SDS011;31408;45.468;9.124;2023-02-02T00:53:57;12.40;;;4.85;;
45694;SDS011;31408;45.468;9.124;2023-02-02T00:56:22;9.23;;;4.47;;
45694;SDS011;31408;45.468;9.124;2023-02-02T00:58:51;11.13;;;5.10;;
45694;SDS011;31408;45.468;9.124;2023-02-02T01:01:17;13.55;;;5.45;;
45694;SDS011;31408;45.468;9.124;2023-02-02T01:03:45;17.27;;;5.07;;
45694;SDS011;31408;45.468;9.124;2023-02-02T01:06:10;12.88;;;5.80;;
45694;SDS011;31408;45.468;9.124;2023-02-02T01:08:36;13.85;;;5.05;;
45694;SDS011;31408;45.468;9.124;2023-02-02T01:11:01;14.82;;;5.88;;
45694;SDS011;31408;45.468;9.124;2023-02-02T01:13:27;13.00;;;5.53;;
45694;SDS011;31408;45.468;9.124;2023-02-02T01:15:55;23.67;;;6.45;;
45694;SDS011;31408;45.468;9.124;2023-02-02T01:18:21;11.30;;;5.07;;
45694;SDS011;31408;45.468;9.124;2023-02-02T01:20:56;13.60;;;5.32;;
45694;SDS011;31408;45.468;9.124;2023-02-02T01:23:25;19.48;;;6.63;;
45694;SDS011;31408;45.468;9.124;2023-02-02T01:25:55;9.30;;;4.47;;
45694;SDS011;31408;45.468;9.124;2023-02-02T01:28:22;9.48;;;5.20;;
45694;SDS011;31408;45.468;9.124;2023-02-02T01:30:48;25.08;;;6.03;;
45694;SDS011;31408;45.468;9.124;2023-02-02T01:33:14;14.50;;;7.50;;
45694;SDS011;31408;45.468;9.124;2023-02-02T01:35:44;13.57;;;5.35;;
45694;SDS011;31408;45.468;9.124;2023-02-02T01:38:11;15.13;;;6.68;;
45694;SDS011;31408;45.468;9.124;2023-02-02T01:40:36;10.80;;;4.82;;
45694;SDS011;31408;45.468;9.124;2023-02-02T01:43:01;10.88;;;4.68;;
45694;SDS011;31408;45.468;9.124;2023-02-02T01:45:27;11.95;;;5.85;;
45694;SDS011;31408;45.468;9.124;2023-02-02T01:47:54;18.25;;;5.88;;
45694;SDS011;31408;45.468;9.124;2023-02-02T01:50:22;16.08;;;6.22;;
45694;SDS011;31408;45.468;9.124;2023-02-02T01:52:51;13.00;;;5.63;;
45694;SDS011;31408;45.468;9.124;2023-02-02T01:55:19;13.98;;;5.68;;
45694;SDS011;31408;45.468;9.124;2023-02-02T01:57:54;12.68;;;4.68;;
45694;SDS011;31408;45.468;9.124;2023-02-02T02:00:22;11.20;;;5.22;;
45694;SDS011;31408;45.468;9.124;2023-02-02T02:02:50;21.35;;;5.22;;
45694;SDS011;31408;45.468;9.124;2023-02-02T02:05:22;10.68;;;4.78;;
45694;SDS011;31408;45.468;9.124;2023-02-02T02:07:59;11.80;;;5.25;;
45694;SDS011;31408;45.468;9.124;2023-02-02T02:10:28;16.47;;;5.27;;
45694;SDS011;31408;45.468;9.124;2023-02-02T02:12:54;14.98;;;5.18;;
45694;SDS011;31408;45.468;9.124;2023-02-02T02:15:19;14.77;;;5.80;;
45694;SDS011;31408;45.468;9.124;2023-02-02T02:33:45;17.55;;;5.78;;
45694;SDS011;31408;45.468;9.124;2023-02-02T02:36:32;12.95;;;6.10;;
45694;SDS011;31408;45.468;9.124;2023-02-02T02:41:37;19.90;;;7.70;;
45694;SDS011;31408;45.468;9.124;2023-02-02T02:44:07;13.15;;;5.82;;
45694;SDS011;31408;45.468;9.124;2023-02-02T02:46:38;20.65;;;7.25;;
45694;SDS011;31408;45.468;9.124;2023-02-02T02:49:05;12.75;;;6.25;;
45694;SDS011;31408;45.468;9.124;2023-02-02T02:51:54;10.23;;;5.22;;
45694;SDS011;31408;45.468;9.124;2023-02-02T02:54:30;14.48;;;6.45;;
45694;SDS011;31408;45.468;9.124;2023-02-02T02:59:45;15.52;;;5.65;;
45694;SDS011;31408;45.468;9.124;2023-02-02T03:05:28;18.08;;;5.50;;
45694;SDS011;31408;45.468;9.124;2023-02-02T03:10:40;10.93;;;5.43;;
45694;SDS011;31408;45.468;9.124;2023-02-02T03:13:07;14.60;;;5.95;;
45694;SDS011;31408;45.468;9.124;2023-02-02T03:15:34;11.85;;;6.10;;
45694;SDS011;31408;45.468;9.124;2023-02-02T03:18:00;14.93;;;6.13;;
45694;SDS011;31408;45.468;9.124;2023-02-02T03:20:26;16.10;;;6.18;;
45694;SDS011;31408;45.468;9.124;2023-02-02T03:22:51;17.02;;;7.30;;
45694;SDS011;31408;45.468;9.124;2023-02-02T03:25:17;17.33;;;6.15;;
45694;SDS011;31408;45.468;9.124;2023-02-02T03:27:43;13.75;;;6.18;;
45694;SDS011;31408;45.468;9.124;2023-02-02T03:30:09;13.88;;;5.40;;
45694;SDS011;31408;45.468;9.124;2023-02-02T03:32:36;14.43;;;5.43;;
45694;SDS011;31408;45.468;9.124;2023-02-02T03:35:02;18.02;;;7.40;;
45694;SDS011;31408;45.468;9.124;2023-02-02T03:37:27;19.83;;;6.53;;
45694;SDS011;31408;45.468;9.124;2023-02-02T03:39:53;14.65;;;5.97;;
45694;SDS011;31408;45.468;9.124;2023-02-02T03:42:18;15.48;;;6.85;;
45694;SDS011;31408;45.468;9.124;2023-02-02T03:44:44;17.10;;;5.65;;
45694;SDS011;31408;45.468;9.124;2023-02-02T03:47:09;15.50;;;7.95;;
45694;SDS011;31408;45.468;9.124;2023-02-02T03:49:35;19.05;;;7.03;;
45694;SDS011;31408;45.468;9.124;2023-02-02T03:52:00;15.77;;;6.40;;
45694;SDS011;31408;45.468;9.124;2023-02-02T03:54:28;14.35;;;6.78;;
45694;SDS011;31408;45.468;9.124;2023-02-02T03:56:53;14.88;;;5.97;;
45694;SDS011;31408;45.468;9.124;2023-02-02T03:59:19;13.77;;;7.40;;
45694;SDS011;31408;45.468;9.124;2023-02-02T04:01:44;21.25;;;7.15;;
45694;SDS011;31408;45.468;9.124;2023-02-02T04:04:10;15.82;;;6.32;;
45694;SDS011;31408;45.468;9.124;2023-02-02T04:06:45;16.75;;;6.93;;
45694;SDS011;31408;45.468;9.124;2023-02-02T04:09:11;20.38;;;6.40;;
45694;SDS011;31408;45.468;9.124;2023-02-02T04:11:36;16.83;;;6.57;;
45694;SDS011;31408;45.468;9.124;2023-02-02T04:14:01;13.15;;;6.50;;
45694;SDS011;31408;45.468;9.124;2023-02-02T04:16:27;12.93;;;6.18;;
45694;SDS011;31408;45.468;9.124;2023-02-02T04:18:53;15.88;;;5.97;;
45694;SDS011;31408;45.468;9.124;2023-02-02T04:21:19;20.48;;;6.53;;
45694;SDS011;31408;45.468;9.124;2023-02-02T04:23:44;13.98;;;6.38;;
45694;SDS011;31408;45.468;9.124;2023-02-02T04:26:10;13.50;;;5.72;;
45694;SDS011;31408;45.468;9.124;2023-02-02T04:28:35;16.52;;;7.18;;
45694;SDS011;31408;45.468;9.124;2023-02-02T04:31:01;12.40;;;5.93;;
45694;SDS011;31408;45.468;9.124;2023-02-02T04:33:27;20.25;;;6.82;;
45694;SDS011;31408;45.468;9.124;2023-02-02T04:35:52;12.05;;;5.85;;
45694;SDS011;31408;45.468;9.124;2023-02-02T04:38:18;19.15;;;8.07;;
45694;SDS011;31408;45.468;9.124;2023-02-02T04:40:44;13.20;;;5.18;;
45694;SDS011;31408;45.468;9.124;2023-02-02T04:43:11;15.43;;;6.63;;
45694;SDS011;31408;45.468;9.124;2023-02-02T04:45:36;16.60;;;6.43;;
45694;SDS011;31408;45.468;9.124;2023-02-02T04:48:02;19.00;;;6.78;;
45694;SDS011;31408;45.468;9.124;2023-02-02T04:50:29;18.05;;;6.32;;
45694;SDS011;31408;45.468;9.124;2023-02-02T04:52:54;17.70;;;7.30;;
45694;SDS011;31408;45.468;9.124;2023-02-02T04:55:20;18.63;;;6.93;;
45694;SDS011;31408;45.468;9.124;2023-02-02T04:57:46;18.23;;;6.88;;
45694;SDS011;31408;45.468;9.124;2023-02-02T05:00:11;12.70;;;5.20;;
45694;SDS011;31408;45.468;9.124;2023-02-02T05:02:38;16.42;;;6.53;;
45694;SDS011;31408;45.468;9.124;2023-02-02T05:05:04;15.77;;;5.18;;
45694;SDS011;31408;45.468;9.124;2023-02-02T05:07:31;13.07;;;5.32;;
45694;SDS011;31408;45.468;9.124;2023-02-02T05:09:57;10.75;;;6.13;;
45694;SDS011;31408;45.468;9.124;2023-02-02T05:12:22;11.90;;;6.07;;
45694;SDS011;31408;45.468;9.124;2023-02-02T05:14:48;14.45;;;6.22;;
45694;SDS011;31408;45.468;9.124;2023-02-02T05:17:13;21.05;;;7.03;;
45694;SDS011;31408;45.468;9.124;2023-02-02T05:19:39;10.23;;;4.25;;
45694;SDS011;31408;45.468;9.124;2023-02-02T05:22:05;18.00;;;6.50;;
45694;SDS011;31408;45.468;9.124;2023-02-02T05:24:30;11.98;;;4.82;;
45694;SDS011;31408;45.468;9.124;2023-02-02T05:26:56;15.48;;;6.07;;
45694;SDS011;31408;45.468;9.124;2023-02-02T05:29:28;16.63;;;6.13;;
45694;SDS011;31408;45.468;9.124;2023-02-02T05:31:54;19.33;;;6.47;;
45694;SDS011;31408;45.468;9.124;2023-02-02T05:34:20;13.98;;;6.18;;
45694;SDS011;31408;45.468;9.124;2023-02-02T05:36:46;13.48;;;5.30;;
45694;SDS011;31408;45.468;9.124;2023-02-02T05:39:11;22.23;;;6.93;;
45694;SDS011;31408;45.468;9.124;2023-02-02T05:41:37;12.25;;;4.80;;
45694;SDS011;31408;45.468;9.124;2023-02-02T05:44:02;18.38;;;6.20;;
45694;SDS011;31408;45.468;9.124;2023-02-02T05:46:28;19.27;;;5.18;;
45694;SDS011;31408;45.468;9.124;2023-02-02T05:48:54;12.50;;;5.72;;
45694;SDS011;31408;45.468;9.124;2023-02-02T05:51:23;16.98;;;5.90;;
45694;SDS011;31408;45.468;9.124;2023-02-02T05:53:50;15.95;;;5.97;;
45694;SDS011;31408;45.468;9.124;2023-02-02T05:56:15;17.50;;;5.60;;
45694;SDS011;31408;45.468;9.124;2023-02-02T05:58:41;18.63;;;5.80;;
45694;SDS011;31408;45.468;9.124;2023-02-02T06:01:07;14.30;;;6.35;;
45694;SDS011;31408;45.468;9.124;2023-02-02T06:03:33;9.95;;;4.53;;
45694;SDS011;31408;45.468;9.124;2023-02-02T06:05:59;13.23;;;6.40;;
45694;SDS011;31408;45.468;9.124;2023-02-02T06:08:24;12.32;;;5.38;;
45694;SDS011;31408;45.468;9.124;2023-02-02T06:10:50;20.40;;;6.25;;
45694;SDS011;31408;45.468;9.124;2023-02-02T06:13:15;15.75;;;6.03;;
45694;SDS011;31408;45.468;9.124;2023-02-02T06:15:41;19.58;;;6.20;;
45694;SDS011;31408;45.468;9.124;2023-02-02T06:18:07;14.32;;;5.28;;
45694;SDS011;31408;45.468;9.124;2023-02-02T06:20:33;17.67;;;6.97;;
45694;SDS011;31408;45.468;9.124;2023-02-02T06:22:59;14.88;;;6.68;;
45694;SDS011;31408;45.468;9.124;2023-02-02T06:25:24;17.60;;;6.45;;
45694;SDS011;31408;45.468;9.124;2023-02-02T06:27:53;16.63;;;6.20;;
45694;SDS011;31408;45.468;9.124;2023-02-02T06:30:20;22.35;;;8.57;;
45694;SDS011;31408;45.468;9.124;2023-02-02T06:32:45;19.80;;;7.05;;
45694;SDS011;31408;45.468;9.124;2023-02-02T06:35:11;21.27;;;7.43;;
45694;SDS011;31408;45.468;9.124;2023-02-02T06:37:36;15.20;;;6.97;;
45694;SDS011;31408;45.468;9.124;2023-02-02T06:40:03;20.95;;;7.40;;
45694;SDS011;31408;45.468;9.124;2023-02-02T06:42:30;18.48;;;7.20;;
45694;SDS011;31408;45.468;9.124;2023-02-02T06:44:56;17.58;;;7.40;;
45694;SDS011;31408;45.468;9.124;2023-02-02T06:47:21;14.43;;;7.15;;
45694;SDS011;31408;45.468;9.124;2023-02-02T06:49:47;16.63;;;6.88;;
45694;SDS011;31408;45.468;9.124;2023-02-02T06:52:12;19.52;;;7.93;;
45694;SDS011;31408;45.468;9.124;2023-02-02T06:54:37;18.45;;;7.35;;
45694;SDS011;31408;45.468;9.124;2023-02-02T06:57:03;16.27;;;7.78;;
45694;SDS011;31408;45.468;9.124;2023-02-02T06:59:28;18.25;;;6.95;;
45694;SDS011;31408;45.468;9.124;2023-02-02T07:01:54;14.52;;;6.35;;
45694;SDS011;31408;45.468;9.124;2023-02-02T07:04:19;14.60;;;6.43;;
45694;SDS011;31408;45.468;9.124;2023-02-02T07:06:50;19.85;;;7.03;;
45694;SDS011;31408;45.468;9.124;2023-02-02T07:09:16;17.15;;;8.10;;
45694;SDS011;31408;45.468;9.124;2023-02-02T07:11:41;18.70;;;7.38;;
45694;SDS011;31408;45.468;9.124;2023-02-02T07:14:07;17.80;;;7.78;;
45694;SDS011;31408;45.468;9.124;2023-02-02T07:16:33;19.38;;;6.80;;
45694;SDS011;31408;45.468;9.124;2023-02-02T07:18:58;19.30;;;7.78;;
45694;SDS011;31408;45.468;9.124;2023-02-02T07:21:26;21.40;;;8.20;;
45694;SDS011;31408;45.468;9.124;2023-02-02T07:23:59;20.55;;;7.53;;
45694;SDS011;31408;45.468;9.124;2023-02-02T07:26:26;18.70;;;7.07;;
45694;SDS011;31408;45.468;9.124;2023-02-02T07:28:52;19.10;;;7.75;;
45694;SDS011;31408;45.468;9.124;2023-02-02T07:31:22;15.85;;;7.68;;
45694;SDS011;31408;45.468;9.124;2023-02-02T07:33:49;25.38;;;8.88;;
45694;SDS011;31408;45.468;9.124;2023-02-02T07:36:16;18.83;;;9.43;;
45694;SDS011;31408;45.468;9.124;2023-02-02T07:38:43;20.70;;;9.63;;
45694;SDS011;31408;45.468;9.124;2023-02-02T07:41:10;18.17;;;7.85;;
45694;SDS011;31408;45.468;9.124;2023-02-02T07:43:36;17.60;;;8.07;;
45694;SDS011;31408;45.468;9.124;2023-02-02T07:46:02;17.10;;;8.40;;
45694;SDS011;31408;45.468;9.124;2023-02-02T07:48:32;17.13;;;7.93;;
45694;SDS011;31408;45.468;9.124;2023-02-02T07:50:59;20.10;;;8.70;;
45694;SDS011;31408;45.468;9.124;2023-02-02T07:53:25;18.85;;;7.97;;
45694;SDS011;31408;45.468;9.124;2023-02-02T07:55:51;17.33;;;7.95;;
45694;SDS011;31408;45.468;9.124;2023-02-02T07:58:16;18.73;;;8.88;;
45694;SDS011;31408;45.468;9.124;2023-02-02T08:00:42;19.08;;;8.80;;
45694;SDS011;31408;45.468;9.124;2023-02-02T08:03:11;14.45;;;7.82;;
45694;SDS011;31408;45.468;9.124;2023-02-02T08:05:37;20.02;;;8.65;;
45694;SDS011;31408;45.468;9.124;2023-02-02T08:08:03;15.57;;;7.53;;
45694;SDS011;31408;45.468;9.124;2023-02-02T08:10:28;16.85;;;7.25;;
45694;SDS011;31408;45.468;9.124;2023-02-02T08:12:53;18.38;;;7.93;;
45694;SDS011;31408;45.468;9.124;2023-02-02T08:15:19;17.40;;;7.68;;
45694;SDS011;31408;45.468;9.124;2023-02-02T08:17:50;18.38;;;7.32;;
45694;SDS011;31408;45.468;9.124;2023-02-02T08:20:16;18.75;;;7.65;;
45694;SDS011;31408;45.468;9.124;2023-02-02T08:22:41;15.23;;;7.55;;
45694;SDS011;31408;45.468;9.124;2023-02-02T08:25:07;19.20;;;7.15;;
45694;SDS011;31408;45.468;9.124;2023-02-02T08:27:36;16.02;;;7.43;;
45694;SDS011;31408;45.468;9.124;2023-02-02T08:30:01;14.90;;;6.88;;
45694;SDS011;31408;45.468;9.124;2023-02-02T08:32:26;14.45;;;7.07;;
45694;SDS011;31408;45.468;9.124;2023-02-02T08:34:52;25.00;;;6.63;;
45694;SDS011;31408;45.468;9.124;2023-02-02T08:37:18;18.15;;;8.15;;
45694;SDS011;31408;45.468;9.124;2023-02-02T08:39:43;16.60;;;7.82;;
45694;SDS011;31408;45.468;9.124;2023-02-02T08:42:09;14.63;;;6.10;;
45694;SDS011;31408;45.468;9.124;2023-02-02T08:44:34;18.63;;;6.65;;
45694;SDS011;31408;45.468;9.124;2023-02-02T08:46:59;13.65;;;6.15;;
45694;SDS011;31408;45.468;9.124;2023-02-02T08:49:25;15.60;;;6.80;;
45694;SDS011;31408;45.468;9.124;2023-02-02T08:51:50;13.35;;;6.43;;
45694;SDS011;31408;45.468;9.124;2023-02-02T08:54:16;14.10;;;5.95;;
45694;SDS011;31408;45.468;9.124;2023-02-02T08:56:41;12.65;;;6.00;;
45694;SDS011;31408;45.468;9.124;2023-02-02T08:59:07;16.98;;;6.90;;
45694;SDS011;31408;45.468;9.124;2023-02-02T09:01:32;13.40;;;5.53;;
45694;SDS011;31408;45.468;9.124;2023-02-02T09:04:00;11.10;;;5.13;;
45694;SDS011;31408;45.468;9.124;2023-02-02T09:06:36;11.27;;;5.40;;
45694;SDS011;31408;45.468;9.124;2023-02-02T09:09:04;10.18;;;5.47;;
45694;SDS011;31408;45.468;9.124;2023-02-02T09:11:31;13.48;;;5.57;;
45694;SDS011;31408;45.468;9.124;2023-02-02T09:13:57;14.50;;;5.97;;
45694;SDS011;31408;45.468;9.124;2023-02-02T09:16:29;11.82;;;5.05;;
45694;SDS011;31408;45.468;9.124;2023-02-02T09:18:55;11.38;;;5.65;;
45694;SDS011;31408;45.468;9.124;2023-02-02T09:21:20;13.52;;;5.50;;
45694;SDS011;31408;45.468;9.124;2023-02-02T09:23:48;10.63;;;5.60;;
45694;SDS011;31408;45.468;9.124;2023-02-02T09:26:16;16.40;;;5.28;;
45694;SDS011;31408;45.468;9.124;2023-02-02T09:28:51;12.95;;;4.82;;
45694;SDS011;31408;45.468;9.124;2023-02-02T09:31:21;11.85;;;5.90;;
45694;SDS011;31408;45.468;9.124;2023-02-02T09:33:47;11.77;;;5.88;;
45694;SDS011;31408;45.468;9.124;2023-02-02T09:36:13;17.92;;;5.70;;
45694;SDS011;31408;45.468;9.124;2023-02-02T09:38:40;14.60;;;6.55;;
45694;SDS011;31408;45.468;9.124;2023-02-02T09:49:00;13.88;;;5.60;;
45694;SDS011;31408;45.468;9.124;2023-02-02T09:51:28;10.98;;;5.70;;
45694;SDS011;31408;45.468;9.124;2023-02-02T09:54:02;9.38;;;5.13;;
45694;SDS011;31408;45.468;9.124;2023-02-02T09:56:42;10.75;;;5.13;;
45694;SDS011;31408;45.468;9.124;2023-02-02T09:59:42;14.82;;;4.82;;
45694;SDS011;31408;45.468;9.124;2023-02-02T10:02:11;12.38;;;4.50;;
45694;SDS011;31408;45.468;9.124;2023-02-02T10:04:40;7.55;;;4.10;;
45694;SDS011;31408;45.468;9.124;2023-02-02T10:07:12;10.20;;;4.60;;
45694;SDS011;31408;45.468;9.124;2023-02-02T10:15:01;11.73;;;5.03;;
45694;SDS011;31408;45.468;9.124;2023-02-02T10:17:54;7.70;;;4.00;;
45694;SDS011;31408;45.468;9.124;2023-02-02T10:23:14;7.63;;;3.65;;
45694;SDS011;31408;45.468;9.124;2023-02-02T10:25:57;5.50;;;3.53;;
45694;SDS011;31408;45.468;9.124;2023-02-02T10:34:14;8.57;;;3.47;;
45694;SDS011;31408;45.468;9.124;2023-02-02T10:42:13;3.85;;;2.88;;
45694;SDS011;31408;45.468;9.124;2023-02-02T10:44:52;5.20;;;2.95;;
45694;SDS011;31408;45.468;9.124;2023-02-02T10:47:23;3.40;;;2.42;;
45694;SDS011;31408;45.468;9.124;2023-02-02T10:52:39;7.40;;;2.28;;
45694;SDS011;31408;45.468;9.124;2023-02-02T10:55:23;4.40;;;2.40;;
45694;SDS011;31408;45.468;9.124;2023-02-02T11:00:44;6.82;;;3.05;;
45694;SDS011;31408;45.468;9.124;2023-02-02T11:03:15;6.82;;;2.13;;
45694;SDS011;31408;45.468;9.124;2023-02-02T11:05:41;3.05;;;2.35;;
45694;SDS011;31408;45.468;9.124;2023-02-02T11:13:56;6.60;;;2.47;;
45694;SDS011;31408;45.468;9.124;2023-02-02T11:16:32;3.17;;;1.75;;
45694;SDS011;31408;45.468;9.124;2023-02-02T11:19:37;6.10;;;2.63;;
45694;SDS011;31408;45.468;9.124;2023-02-02T11:21:57;4.50;;;2.22;;
45694;SDS011;31408;45.468;9.124;2023-02-02T11:29:47;3.92;;;2.15;;
45694;SDS011;31408;45.468;9.124;2023-02-02T11:32:32;3.60;;;1.88;;
45694;SDS011;31408;45.468;9.124;2023-02-02T11:40:37;1.70;;;1.23;;
45694;SDS011;31408;45.468;9.124;2023-02-02T11:43:06;2.13;;;1.50;;
45694;SDS011;31408;45.468;9.124;2023-02-02T11:45:42;5.28;;;1.95;;
45694;SDS011;31408;45.468;9.124;2023-02-02T11:48:23;5.30;;;1.90;;
45694;SDS011;31408;45.468;9.124;2023-02-02T11:50:52;4.82;;;2.15;;
45694;SDS011;31408;45.468;9.124;2023-02-02T11:53:23;2.42;;;1.80;;
45694;SDS011;31408;45.468;9.124;2023-02-02T11:55:49;3.40;;;2.75;;
45694;SDS011;31408;45.468;9.124;2023-02-02T12:00:52;6.25;;;2.72;;
45694;SDS011;31408;45.468;9.124;2023-02-02T12:03:28;7.90;;;3.22;;
45694;SDS011;31408;45.468;9.124;2023-02-02T12:05:55;6.32;;;3.25;;
45694;SDS011;31408;45.468;9.124;2023-02-02T12:08:21;8.10;;;3.90;;
45694;SDS011;31408;45.468;9.124;2023-02-02T12:10:52;9.95;;;4.07;;
45694;SDS011;31408;45.468;9.124;2023-02-02T12:16:38;13.23;;;4.20;;
45694;SDS011;31408;45.468;9.124;2023-02-02T12:26:35;7.25;;;3.13;;
45694;SDS011;31408;45.468;9.124;2023-02-02T12:54:11;5.25;;;3.00;;
45694;SDS011;31408;45.468;9.124;2023-02-02T13:11:22;10.68;;;3.78;;
45694;SDS011;31408;45.468;9.124;2023-02-02T13:13:57;6.70;;;3.40;;
45694;SDS011;31408;45.468;9.124;2023-02-02T13:16:25;11.82;;;3.88;;
45694;SDS011;31408;45.468;9.124;2023-02-02T13:18:54;10.20;;;4.20;;
45694;SDS011;31408;45.468;9.124;2023-02-02T13:21:25;8.63;;;3.80;;
45694;SDS011;31408;45.468;9.124;2023-02-02T13:23:54;6.15;;;3.30;;
45694;SDS011;31408;45.468;9.124;2023-02-02T13:26:23;9.45;;;3.58;;
45694;SDS011;31408;45.468;9.124;2023-02-02T13:29:02;5.15;;;2.95;;
45694;SDS011;31408;45.468;9.124;2023-02-02T13:37:48;9.35;;;3.47;;
45694;SDS011;31408;45.468;9.124;2023-02-02T13:40:37;8.60;;;4.15;;
45694;SDS011;31408;45.468;9.124;2023-02-02T14:07:55;12.32;;;4.78;;
45694;SDS011;31408;45.468;9.124;2023-02-02T14:10:43;10.02;;;4.18;;
45694;SDS011;31408;45.468;9.124;2023-02-02T14:13:21;14.43;;;5.55;;
45694;SDS011;31408;45.468;9.124;2023-02-02T14:16:54;10.60;;;5.50;;
45694;SDS011;31408;45.468;9.124;2023-02-02T14:18:57;13.95;;;4.72;;
45694;SDS011;31408;45.468;9.124;2023-02-02T14:23:56;14.45;;;5.18;;
45694;SDS011;31408;45.468;9.124;2023-02-02T14:26:42;13.63;;;5.50;;
45694;SDS011;31408;45.468;9.124;2023-02-02T14:31:55;9.70;;;4.72;;
45694;SDS011;31408;45.468;9.124;2023-02-02T14:34:40;12.75;;;5.20;;
45694;SDS011;31408;45.468;9.124;2023-02-02T14:42:55;11.75;;;5.05;;
45694;SDS011;31408;45.468;9.124;2023-02-02T14:48:37;21.23;;;5.88;;
45694;SDS011;31408;45.468;9.124;2023-02-02T14:51:03;13.88;;;4.88;;
45694;SDS011;31408;45.468;9.124;2023-02-02T14:53:37;15.45;;;5.47;;
45694;SDS011;31408;45.468;9.124;2023-02-02T14:56:07;14.18;;;5.53;;
45694;SDS011;31408;45.468;9.124;2023-02-02T15:03:52;14.75;;;6.28;;
45694;SDS011;31408;45.468;9.124;2023-02-02T15:14:24;20.05;;;7.82;;
45694;SDS011;31408;45.468;9.124;2023-02-02T15:16:51;17.38;;;6.63;;
45694;SDS011;31408;45.468;9.124;2023-02-02T15:19:28;19.58;;;7.20;;
45694;SDS011;31408;45.468;9.124;2023-02-02T15:21:58;23.48;;;8.18;;
45694;SDS011;31408;45.468;9.124;2023-02-02T15:24:28;23.77;;;9.13;;
45694;SDS011;31408;45.468;9.124;2023-02-02T15:26:59;22.08;;;8.63;;
45694;SDS011;31408;45.468;9.124;2023-02-02T15:29:30;20.77;;;7.63;;
45694;SDS011;31408;45.468;9.124;2023-02-02T15:31:56;21.65;;;7.50;;
45694;SDS011;31408;45.468;9.124;2023-02-02T15:34:39;23.65;;;8.23;;
45694;SDS011;31408;45.468;9.124;2023-02-02T15:37:19;20.17;;;7.45;;
45694;SDS011;31408;45.468;9.124;2023-02-02T15:39:47;22.50;;;7.68;;
45694;SDS011;31408;45.468;9.124;2023-02-02T15:42:20;23.02;;;8.50;;
45694;SDS011;31408;45.468;9.124;2023-02-02T15:45:23;21.50;;;8.27;;
45694;SDS011;31408;45.468;9.124;2023-02-02T15:47:59;22.08;;;7.25;;
45694;SDS011;31408;45.468;9.124;2023-02-02T15:50:28;22.42;;;9.13;;
45694;SDS011;31408;45.468;9.124;2023-02-02T15:52:53;22.88;;;8.20;;
45694;SDS011;31408;45.468;9.124;2023-02-02T15:55:20;25.00;;;10.85;;
45694;SDS011;31408;45.468;9.124;2023-02-02T15:57:57;20.17;;;8.27;;
45694;SDS011;31408;45.468;9.124;2023-02-02T16:05:52;29.05;;;7.95;;
45694;SDS011;31408;45.468;9.124;2023-02-02T16:11:02;26.23;;;9.63;;
45694;SDS011;31408;45.468;9.124;2023-02-02T16:13:30;22.92;;;7.63;;
45694;SDS011;31408;45.468;9.124;2023-02-02T16:15:58;26.80;;;9.10;;
45694;SDS011;31408;45.468;9.124;2023-02-02T16:18:29;23.90;;;8.43;;
45694;SDS011;31408;45.468;9.124;2023-02-02T16:20:56;21.58;;;8.68;;
45694;SDS011;31408;45.468;9.124;2023-02-02T16:23:27;25.10;;;9.32;;
45694;SDS011;31408;45.468;9.124;2023-02-02T16:25:56;23.05;;;9.10;;
45694;SDS011;31408;45.468;9.124;2023-02-02T16:28:22;24.38;;;9.05;;
45694;SDS011;31408;45.468;9.124;2023-02-02T16:30:49;23.55;;;9.70;;
45694;SDS011;31408;45.468;9.124;2023-02-02T16:38:54;22.73;;;8.70;;
45694;SDS011;31408;45.468;9.124;2023-02-02T16:43:52;26.55;;;9.70;;
45694;SDS011;31408;45.468;9.124;2023-02-02T16:49:14;22.85;;;8.18;;
45694;SDS011;31408;45.468;9.124;2023-02-02T16:51:41;30.83;;;10.40;;
45694;SDS011;31408;45.468;9.124;2023-02-02T16:56:43;26.67;;;9.13;;
45694;SDS011;31408;45.468;9.124;2023-02-02T16:59:26;20.83;;;8.07;;
45694;SDS011;31408;45.468;9.124;2023-02-02T17:01:55;24.77;;;10.20;;
45694;SDS011;31408;45.468;9.124;2023-02-02T17:04:23;25.20;;;8.23;;
45694;SDS011;31408;45.468;9.124;2023-02-02T17:06:55;22.60;;;8.77;;
45694;SDS011;31408;45.468;9.124;2023-02-02T17:09:25;24.73;;;9.02;;
45694;SDS011;31408;45.468;9.124;2023-02-02T17:11:57;22.77;;;8.77;;
45694;SDS011;31408;45.468;9.124;2023-02-02T17:14:56;23.05;;;8.88;;
45694;SDS011;31408;45.468;9.124;2023-02-02T17:19:54;22.13;;;8.35;;
45694;SDS011;31408;45.468;9.124;2023-02-02T17:22:21;32.30;;;8.70;;
45694;SDS011;31408;45.468;9.124;2023-02-02T17:24:48;23.02;;;8.93;;
45694;SDS011;31408;45.468;9.124;2023-02-02T17:27:20;24.02;;;8.10;;
45694;SDS011;31408;45.468;9.124;2023-02-02T17:29:51;22.08;;;8.10;;
45694;SDS011;31408;45.468;9.124;2023-02-02T17:32:17;24.88;;;8.20;;
45694;SDS011;31408;45.468;9.124;2023-02-02T17:34:43;23.63;;;8.25;;
45694;SDS011;31408;45.468;9.124;2023-02-02T17:37:10;26.42;;;9.15;;
45694;SDS011;31408;45.468;9.124;2023-02-02T17:39:35;26.13;;;9.45;;
45694;SDS011;31408;45.468;9.124;2023-02-02T17:42:02;28.38;;;9.15;;
45694;SDS011;31408;45.468;9.124;2023-02-02T17:44:28;21.85;;;9.15;;
45694;SDS011;31408;45.468;9.124;2023-02-02T17:46:53;25.02;;;8.85;;
45694;SDS011;31408;45.468;9.124;2023-02-02T17:49:18;22.65;;;8.35;;
45694;SDS011;31408;45.468;9.124;2023-02-02T17:51:44;21.33;;;10.10;;
45694;SDS011;31408;45.468;9.124;2023-02-02T17:54:13;23.52;;;8.48;;
45694;SDS011;31408;45.468;9.124;2023-02-02T17:56:40;26.95;;;8.40;;
45694;SDS011;31408;45.468;9.124;2023-02-02T17:59:06;27.83;;;8.57;;
45694;SDS011;31408;45.468;9.124;2023-02-02T18:01:32;24.67;;;8.77;;
45694;SDS011;31408;45.468;9.124;2023-02-02T18:03:58;22.20;;;9.30;;
45694;SDS011;31408;45.468;9.124;2023-02-02T18:06:24;20.55;;;8.02;;
45694;SDS011;31408;45.468;9.124;2023-02-02T18:08:49;26.77;;;9.45;;
45694;SDS011;31408;45.468;9.124;2023-02-02T18:11:15;21.23;;;7.63;;
45694;SDS011;31408;45.468;9.124;2023-02-02T18:13:41;29.30;;;9.93;;
45694;SDS011;31408;45.468;9.124;2023-02-02T18:16:07;20.73;;;7.78;;
45694;SDS011;31408;45.468;9.124;2023-02-02T18:18:32;24.23;;;9.15;;
45694;SDS011;31408;45.468;9.124;2023-02-02T18:20:58;22.67;;;8.77;;